createdAt,value
2022-11-18T00:01:33.129Z,4.22
2022-11-18T00:04:02.101Z,3.67
2022-11-18T00:06:31.541Z,5.82
2022-11-18T00:09:00.841Z,3.03
2022-11-18T00:11:48.754Z,2.72
2022-11-18T00:14:22.950Z,2.72
2022-11-18T00:16:54.442Z,2.10
2022-11-18T00:19:25.253Z,1.77
2022-11-18T00:21:54.386Z,2.80
2022-11-18T00:24:22.955Z,3.47
2022-11-18T00:26:53.359Z,2.83
2022-11-18T00:29:22.650Z,2.88
2022-11-18T00:31:51.561Z,2.38
2022-11-18T00:34:20.429Z,2.03
2022-11-18T00:36:49.862Z,2.10
2022-11-18T00:39:20.779Z,3.40
2022-11-18T00:42:07.020Z,2.67
2022-11-18T00:44:37.274Z,4.40
2022-11-18T00:47:06.712Z,3.53
2022-11-18T00:49:35.333Z,2.15
2022-11-18T00:52:04.192Z,3.60
2022-11-18T00:54:32.976Z,3.53
2022-11-18T00:57:01.696Z,3.22
2022-11-18T00:59:30.244Z,2.55
2022-11-18T01:02:00.484Z,3.58
2022-11-18T01:04:29.062Z,3.20
2022-11-18T01:06:57.735Z,2.83
2022-11-18T01:09:26.507Z,2.20
2022-11-18T01:12:12.448Z,1.92
2022-11-18T01:14:41.016Z,3.13
2022-11-18T01:17:10.940Z,3.72
2022-11-18T01:19:39.637Z,3.55
2022-11-18T01:22:08.218Z,4.88
2022-11-18T01:24:36.816Z,6.78
2022-11-18T01:27:05.452Z,3.95
2022-11-18T01:29:34.106Z,3.88
2022-11-18T01:32:24.115Z,2.58
2022-11-18T01:34:52.961Z,1.77
2022-11-18T01:37:21.565Z,2.40
2022-11-18T01:39:50.106Z,1.92
2022-11-18T01:42:19.285Z,3.53
2022-11-18T01:45:16.801Z,3.88
2022-11-18T01:47:50.959Z,3.92
2022-11-18T01:50:23.190Z,7.03
2022-11-18T01:52:53.847Z,5.05
2022-11-18T01:55:26.641Z,4.80
2022-11-18T01:58:03.392Z,4.00
2022-11-18T02:00:32.082Z,5.93
2022-11-18T02:03:03.283Z,4.45
2022-11-18T02:05:35.013Z,3.63
2022-11-18T02:08:04.318Z,4.60
2022-11-18T02:10:33.148Z,4.63
2022-11-18T02:13:02.504Z,3.73
2022-11-18T02:15:45.466Z,5.70
2022-11-18T02:18:23.591Z,5.82
2022-11-18T02:20:57.554Z,4.43
2022-11-18T02:24:10.208Z,4.35
2022-11-18T02:27:32.330Z,3.10
2022-11-18T02:30:08.338Z,4.70
2022-11-18T02:32:43.447Z,4.47
2022-11-18T02:35:18.368Z,6.22
2022-11-18T02:37:52.742Z,6.05
2022-11-18T02:40:27.301Z,3.30
2022-11-18T02:43:03.340Z,5.97
2022-11-18T02:45:34.210Z,4.65
2022-11-18T02:48:07.064Z,4.47
2022-11-18T02:50:37.333Z,4.05
2022-11-18T02:53:07.741Z,6.13
2022-11-18T02:55:39.705Z,4.57
2022-11-18T02:58:09.104Z,4.93
2022-11-18T03:00:39.101Z,5.00
2022-11-18T03:03:27.427Z,4.47
2022-11-18T03:06:05.577Z,3.97
2022-11-18T03:08:39.715Z,3.00
2022-11-18T03:11:15.685Z,1.45
2022-11-18T03:13:56.975Z,2.00
2022-11-18T03:16:32.175Z,1.98
2022-11-18T03:19:08.470Z,2.63
2022-11-18T03:21:41.793Z,2.13
2022-11-18T03:24:16.551Z,3.05
2022-11-18T03:26:50.322Z,3.97
2022-11-18T03:29:22.710Z,4.68
2022-11-18T03:31:55.343Z,7.60
2022-11-18T03:34:29.759Z,5.63
2022-11-18T03:37:05.145Z,5.50
2022-11-18T03:39:38.960Z,3.22
2022-11-18T03:42:13.884Z,4.35
2022-11-18T03:44:52.340Z,4.40
2022-11-18T03:47:28.055Z,4.73
2022-11-18T03:50:01.742Z,4.40
2022-11-18T03:52:33.822Z,5.72
2022-11-18T03:55:07.018Z,4.60
2022-11-18T03:57:45.045Z,8.18
2022-11-18T04:00:16.574Z,5.40
2022-11-18T04:02:48.915Z,5.72
2022-11-18T04:05:19.234Z,4.32
2022-11-18T04:07:56.990Z,5.07
2022-11-18T04:10:30.856Z,6.57
2022-11-18T04:13:06.456Z,3.50
2022-11-18T04:15:39.370Z,3.22
2022-11-18T04:18:09.596Z,4.70
2022-11-18T04:20:40.117Z,3.00
2022-11-18T04:23:09.478Z,3.35
2022-11-18T04:25:38.446Z,3.17
2022-11-18T04:28:07.098Z,2.22
2022-11-18T04:30:36.089Z,3.05
2022-11-18T04:33:05.353Z,2.88
2022-11-18T04:35:35.489Z,2.88
2022-11-18T04:38:05.134Z,2.85
2022-11-18T04:43:03.288Z,3.72
2022-11-18T04:45:31.949Z,3.90
2022-11-18T04:48:03.450Z,2.85
2022-11-18T04:50:34.177Z,3.25
2022-11-18T04:53:02.748Z,3.50
2022-11-18T04:55:31.275Z,3.03
2022-11-18T04:57:59.901Z,2.53
2022-11-18T05:00:28.628Z,2.67
2022-11-18T05:02:57.256Z,2.70
2022-11-18T05:05:26.099Z,3.10
2022-11-18T05:07:58.079Z,3.40
2022-11-18T05:10:26.820Z,4.15
2022-11-18T05:12:54.513Z,4.93
2022-11-18T05:15:24.654Z,4.80
2022-11-18T05:17:53.268Z,4.68
2022-11-18T05:20:21.879Z,6.78
2022-11-18T05:22:50.430Z,4.43
2022-11-18T05:25:20.468Z,6.28
2022-11-18T05:27:49.047Z,8.05
2022-11-18T05:30:17.865Z,6.38
2022-11-18T05:32:46.652Z,5.00
2022-11-18T05:35:15.257Z,5.25
2022-11-18T05:37:43.972Z,6.60
2022-11-18T05:40:13.261Z,10.35
2022-11-18T05:43:00.564Z,8.77
2022-11-18T05:45:29.096Z,8.38
2022-11-18T05:48:04.238Z,9.57
2022-11-18T05:50:39.284Z,9.40
2022-11-18T05:53:08.353Z,8.82
2022-11-18T05:55:41.852Z,6.97
2022-11-18T05:58:12.044Z,6.68
2022-11-18T06:00:42.372Z,6.75
2022-11-18T06:03:18.891Z,6.55
2022-11-18T06:05:48.136Z,5.35
2022-11-18T06:08:20.073Z,4.35
2022-11-18T06:10:51.556Z,3.88
2022-11-18T06:13:25.557Z,4.70
2022-11-18T06:15:54.686Z,6.03
2022-11-18T06:18:25.981Z,8.05
2022-11-18T06:20:59.858Z,7.45
2022-11-18T06:23:29.729Z,7.43
2022-11-18T06:25:58.422Z,4.82
2022-11-18T06:28:30.087Z,5.15
2022-11-18T06:30:59.186Z,5.50
2022-11-18T06:33:27.831Z,5.80
2022-11-18T06:35:56.440Z,6.57
2022-11-18T06:38:26.275Z,5.65
2022-11-18T06:43:42.626Z,11.23
2022-11-18T06:46:32.660Z,5.53
2022-11-18T06:49:01.956Z,5.63
2022-11-18T06:51:31.001Z,4.18
2022-11-18T06:53:59.626Z,4.50
2022-11-18T06:56:28.413Z,4.75
2022-11-18T06:58:58.954Z,3.05
2022-11-18T07:01:30.871Z,7.20
2022-11-18T07:04:00.841Z,5.20
2022-11-18T07:06:30.990Z,6.03
2022-11-18T07:09:02.008Z,6.53
2022-11-18T07:11:31.355Z,8.98
2022-11-18T07:14:00.438Z,7.22
2022-11-18T07:16:30.492Z,4.88
2022-11-18T07:18:59.261Z,6.38
2022-11-18T07:21:29.497Z,6.15
2022-11-18T07:23:58.442Z,5.60
2022-11-18T07:26:27.036Z,5.90
2022-11-18T07:28:55.976Z,5.72
2022-11-18T07:31:24.572Z,6.97
2022-11-18T07:33:54.885Z,5.97
2022-11-18T07:36:25.273Z,5.20
2022-11-18T07:38:54.494Z,5.47
2022-11-18T07:41:24.928Z,7.07
2022-11-18T07:44:00.061Z,3.95
2022-11-18T07:46:31.988Z,6.07
2022-11-18T07:49:03.731Z,5.22
2022-11-18T07:51:34.584Z,4.68
2022-11-18T07:54:06.611Z,5.25
2022-11-18T07:56:35.211Z,5.25
2022-11-18T07:59:03.764Z,5.30
2022-11-18T08:01:33.687Z,5.10
2022-11-18T08:04:08.753Z,5.00
2022-11-18T08:06:37.993Z,5.32
2022-11-18T08:09:07.747Z,5.03
2022-11-18T08:14:05.068Z,5.93
2022-11-18T08:16:33.678Z,4.83
2022-11-18T08:19:02.387Z,4.72
2022-11-18T08:21:32.469Z,5.75
2022-11-18T08:24:02.147Z,4.88
2022-11-18T08:28:59.727Z,6.57
2022-11-18T08:31:31.044Z,7.28
2022-11-18T08:34:01.545Z,6.15
2022-11-18T08:36:33.169Z,4.93
2022-11-18T08:39:03.624Z,4.80
2022-11-18T08:41:35.496Z,8.55
2022-11-18T08:44:04.823Z,7.97
2022-11-18T08:46:33.550Z,5.97
2022-11-18T08:49:02.697Z,5.72
2022-11-18T08:51:32.932Z,8.43
2022-11-18T08:54:01.856Z,7.40
2022-11-18T08:56:30.577Z,7.22
2022-11-18T08:58:59.334Z,9.05
2022-11-18T09:01:28.810Z,4.97
2022-11-18T09:03:57.938Z,6.78
2022-11-18T09:06:26.874Z,7.93
2022-11-18T09:08:58.709Z,5.03
2022-11-18T09:11:30.641Z,5.50
2022-11-18T09:16:49.176Z,10.10
2022-11-18T09:19:45.772Z,6.18
2022-11-18T09:22:07.891Z,7.00
2022-11-18T09:24:38.371Z,7.60
2022-11-18T09:27:13.694Z,7.63
2022-11-18T09:29:45.501Z,7.60
2022-11-18T09:32:14.214Z,7.47
2022-11-18T09:34:42.869Z,9.15
2022-11-18T09:37:11.548Z,8.43
2022-11-18T09:39:41.644Z,10.68
2022-11-18T09:42:28.052Z,10.60
2022-11-18T09:45:14.499Z,8.20
2022-11-18T09:47:44.144Z,6.60
2022-11-18T09:53:16.006Z,6.88
2022-11-18T09:55:47.227Z,5.28
2022-11-18T09:58:19.578Z,6.38
2022-11-18T10:00:48.447Z,6.47
2022-11-18T10:03:27.325Z,5.72
2022-11-18T10:06:03.873Z,7.00
2022-11-18T10:08:38.276Z,7.00
2022-11-18T10:11:14.595Z,6.80
2022-11-18T10:13:55.578Z,8.65
2022-11-18T10:16:32.522Z,7.90
2022-11-18T10:19:09.954Z,6.18
2022-11-18T10:21:52.024Z,6.82
2022-11-18T10:24:22.303Z,12.20
2022-11-18T10:26:57.277Z,9.23
2022-11-18T10:29:27.109Z,12.30
2022-11-18T10:32:04.309Z,7.32
2022-11-18T10:34:33.747Z,25.70
2022-11-18T10:37:04.283Z,16.30
2022-11-18T10:39:33.433Z,13.40
2022-11-18T10:42:06.842Z,10.93
2022-11-18T10:44:38.417Z,10.50
2022-11-18T10:47:28.755Z,13.05
2022-11-18T10:49:59.639Z,8.82
2022-11-18T10:52:29.977Z,12.27
2022-11-18T10:55:16.802Z,11.45
2022-11-18T10:57:47.372Z,9.85
2022-11-18T11:00:43.764Z,11.95
2022-11-18T11:03:27.996Z,8.10
2022-11-18T11:06:19.955Z,14.90
2022-11-18T11:08:50.642Z,18.52
2022-11-18T11:11:26.404Z,10.70
2022-11-18T11:14:03.235Z,7.05
2022-11-18T11:16:32.939Z,9.65
2022-11-18T11:19:04.595Z,11.40
2022-11-18T11:21:33.441Z,10.20
2022-11-18T11:24:02.185Z,10.95
2022-11-18T11:29:44.262Z,10.40
2022-11-18T11:32:21.024Z,8.80
2022-11-18T11:34:59.435Z,7.28
2022-11-18T11:37:35.051Z,7.82
2022-11-18T11:40:17.814Z,5.68
2022-11-18T11:42:57.190Z,5.90
2022-11-18T11:45:38.478Z,11.15
2022-11-18T11:48:30.419Z,5.47
2022-11-18T11:51:05.374Z,7.28
2022-11-18T11:54:03.529Z,7.78
2022-11-18T11:56:37.071Z,9.60
2022-11-18T11:59:17.820Z,8.02
2022-11-18T12:02:16.476Z,9.40
2022-11-18T12:04:47.905Z,8.40
2022-11-18T12:07:21.009Z,8.40
2022-11-18T12:10:17.653Z,7.20
2022-11-18T12:12:57.159Z,8.38
2022-11-18T12:15:37.299Z,14.70
2022-11-18T12:18:17.033Z,11.90
2022-11-18T12:20:48.314Z,7.20
2022-11-18T12:23:20.064Z,7.60
2022-11-18T12:26:03.217Z,6.97
2022-11-18T12:28:34.693Z,8.48
2022-11-18T12:31:33.502Z,14.27
2022-11-18T12:34:06.748Z,17.00
2022-11-18T12:36:37.677Z,15.40
2022-11-18T12:39:39.195Z,15.63
2022-11-18T12:42:47.200Z,15.98
2022-11-18T12:45:58.592Z,8.85
2022-11-18T12:48:33.734Z,19.02
2022-11-18T12:51:12.311Z,15.10
2022-11-18T12:53:43.449Z,25.92
2022-11-18T12:56:22.382Z,20.40
2022-11-18T12:58:53.262Z,17.58
2022-11-18T13:01:23.824Z,13.75
2022-11-18T13:03:53.319Z,13.30
2022-11-18T13:06:29.798Z,14.65
2022-11-18T13:09:01.695Z,15.85
2022-11-18T13:11:52.075Z,25.23
2022-11-18T13:14:44.369Z,33.60
2022-11-18T13:17:46.592Z,34.90
2022-11-18T13:20:23.658Z,27.77
2022-11-18T13:23:12.579Z,35.70
2022-11-18T13:25:42.707Z,27.30
2022-11-18T13:28:20.404Z,18.60
2022-11-18T13:30:54.301Z,15.30
2022-11-18T13:33:24.117Z,13.18
2022-11-18T13:38:28.483Z,17.30
2022-11-18T13:41:08.359Z,21.17
2022-11-18T13:43:37.470Z,28.77
2022-11-18T13:46:10.789Z,20.33
2022-11-18T13:48:45.950Z,29.48
2022-11-18T13:51:15.256Z,47.28
2022-11-18T13:53:45.790Z,90.75
2022-11-18T13:56:21.773Z,77.25
2022-11-18T13:59:17.323Z,84.32
2022-11-18T14:01:46.381Z,23.95
2022-11-18T14:04:21.854Z,22.45
2022-11-18T14:06:50.694Z,16.63
2022-11-18T14:09:26.074Z,47.70
2022-11-18T14:12:02.836Z,24.58
2022-11-18T14:14:35.100Z,27.95
2022-11-18T14:17:17.632Z,37.97
2022-11-18T14:19:47.876Z,37.15
2022-11-18T14:22:19.622Z,30.80
2022-11-18T14:24:58.135Z,28.95
2022-11-18T14:27:36.594Z,24.38
2022-11-18T14:30:34.328Z,31.02
2022-11-18T14:33:18.298Z,33.83
2022-11-18T14:35:55.745Z,30.75
2022-11-18T14:38:40.587Z,30.30
2022-11-18T14:41:15.512Z,26.83
2022-11-18T14:43:46.214Z,20.08
2022-11-18T14:46:18.401Z,15.23
2022-11-18T14:48:52.218Z,21.40
2022-11-18T14:51:20.965Z,40.92
2022-11-18T14:53:49.580Z,30.98
2022-11-18T14:56:25.138Z,33.30
2022-11-18T14:58:53.769Z,27.90
2022-11-18T15:01:29.321Z,16.83
2022-11-18T15:03:59.410Z,18.75
2022-11-18T15:06:28.730Z,19.48
2022-11-18T15:08:57.381Z,34.08
2022-11-18T15:11:28.522Z,65.20
2022-11-18T15:13:57.182Z,31.10
2022-11-18T15:16:27.762Z,25.05
2022-11-18T15:19:00.392Z,21.92
2022-11-18T15:21:29.789Z,31.73
2022-11-18T15:23:58.443Z,36.40
2022-11-18T15:26:32.024Z,28.13
2022-11-18T15:29:00.786Z,23.50
2022-11-18T15:31:29.548Z,34.67
2022-11-18T15:34:02.169Z,46.88
2022-11-18T15:36:35.356Z,29.60
2022-11-18T15:39:04.109Z,25.60
2022-11-18T15:41:34.356Z,21.70
2022-11-18T15:44:03.910Z,21.08
2022-11-18T15:46:33.755Z,23.25
2022-11-18T15:49:04.713Z,12.73
2022-11-18T15:51:34.120Z,11.63
2022-11-18T15:54:02.721Z,11.57
2022-11-18T15:56:34.394Z,11.32
2022-11-18T15:59:05.397Z,10.75
2022-11-18T16:01:36.946Z,10.27
2022-11-18T16:04:06.541Z,8.88
2022-11-18T16:06:35.749Z,8.68
2022-11-18T16:09:05.182Z,8.27
2022-11-18T16:11:52.826Z,9.93
2022-11-18T16:14:23.340Z,11.45
2022-11-18T16:16:54.247Z,7.85
2022-11-18T16:19:24.819Z,8.55
2022-11-18T16:21:56.986Z,10.80
2022-11-18T16:24:28.730Z,12.52
2022-11-18T16:26:59.005Z,11.77
2022-11-18T16:29:27.805Z,10.60
2022-11-18T16:31:56.470Z,11.00
2022-11-18T16:34:27.017Z,13.18
2022-11-18T16:36:57.765Z,9.82
2022-11-18T16:39:28.000Z,14.15
2022-11-18T16:42:07.492Z,11.30
2022-11-18T16:44:37.176Z,9.30
2022-11-18T16:47:13.776Z,8.68
2022-11-18T16:49:44.113Z,7.22
2022-11-18T16:52:12.893Z,8.70
2022-11-18T16:54:45.702Z,7.72
2022-11-18T16:57:16.564Z,9.15
2022-11-18T16:59:45.432Z,7.72
2022-11-18T17:02:15.643Z,7.47
2022-11-18T17:04:44.600Z,7.95
2022-11-18T17:07:13.532Z,6.72
2022-11-18T17:09:43.444Z,5.78
2022-11-18T17:14:41.891Z,6.70
2022-11-18T17:17:10.640Z,9.00
2022-11-18T17:19:42.353Z,7.63
2022-11-18T17:22:11.195Z,10.15
2022-11-18T17:24:41.975Z,8.40
2022-11-18T17:27:10.567Z,7.80
2022-11-18T17:29:39.271Z,10.40
2022-11-18T17:32:10.260Z,8.60
2022-11-18T17:34:39.164Z,7.75
2022-11-18T17:37:07.833Z,10.40
2022-11-18T17:39:36.806Z,6.88
2022-11-18T17:42:22.671Z,8.23
2022-11-18T17:44:51.391Z,5.78
2022-11-18T17:47:21.501Z,8.63
2022-11-18T17:49:51.445Z,6.15
2022-11-18T17:52:20.141Z,8.20
2022-11-18T17:54:49.916Z,9.02
2022-11-18T17:57:18.653Z,8.93
2022-11-18T17:59:47.441Z,8.35
2022-11-18T18:02:16.274Z,12.60
2022-11-18T18:04:46.442Z,11.20
2022-11-18T18:07:15.116Z,7.25
2022-11-18T18:09:43.701Z,8.98
2022-11-18T18:12:29.714Z,10.45
2022-11-18T18:14:58.397Z,8.10
2022-11-18T18:17:27.171Z,8.55
2022-11-18T18:19:57.392Z,8.33
2022-11-18T18:22:26.050Z,9.55
2022-11-18T18:24:54.897Z,8.85
2022-11-18T18:27:23.535Z,9.30
2022-11-18T18:29:52.701Z,11.43
2022-11-18T18:32:21.331Z,10.27
2022-11-18T18:34:50.012Z,10.60
2022-11-18T18:37:20.078Z,12.02
2022-11-18T18:39:48.815Z,12.27
2022-11-18T18:42:17.676Z,10.15
2022-11-18T18:45:03.950Z,10.00
2022-11-18T18:47:34.929Z,9.43
2022-11-18T18:50:04.217Z,8.90
2022-11-18T18:52:34.786Z,9.70
2022-11-18T18:55:03.487Z,16.98
2022-11-18T18:57:32.089Z,7.65
2022-11-18T19:00:02.235Z,9.55
2022-11-18T19:02:30.947Z,6.88
2022-11-18T19:05:00.485Z,7.90
2022-11-18T19:07:31.641Z,8.68
2022-11-18T19:10:02.168Z,8.20
2022-11-18T19:12:51.718Z,10.20
2022-11-18T19:15:23.175Z,8.90
2022-11-18T19:17:52.062Z,9.38
2022-11-18T19:20:36.575Z,8.13
2022-11-18T19:26:01.857Z,8.98
2022-11-18T19:28:30.699Z,10.27
2022-11-18T19:31:01.082Z,7.77
2022-11-18T19:33:29.740Z,13.50
2022-11-18T19:36:02.120Z,9.52
2022-11-18T19:38:31.557Z,9.05
2022-11-18T19:41:02.645Z,9.77
2022-11-18T19:43:31.651Z,9.88
2022-11-18T19:46:00.321Z,8.90
2022-11-18T19:48:28.956Z,11.70
2022-11-18T19:51:06.992Z,11.15
2022-11-18T19:53:39.051Z,8.50
2022-11-18T19:56:12.216Z,8.65
2022-11-18T19:58:42.481Z,9.93
2022-11-18T20:01:13.848Z,9.30
2022-11-18T20:03:42.720Z,11.10
2022-11-18T20:06:12.748Z,8.57
2022-11-18T20:08:42.028Z,9.18
2022-11-18T20:11:14.268Z,6.95
2022-11-18T20:13:44.249Z,8.45
2022-11-18T20:16:15.772Z,6.57
2022-11-18T20:18:44.967Z,6.88
2022-11-18T20:21:16.052Z,6.45
2022-11-18T20:23:44.790Z,6.95
2022-11-18T20:26:16.818Z,6.30
2022-11-18T20:28:47.284Z,7.22
2022-11-18T20:31:17.583Z,8.00
2022-11-18T20:33:49.770Z,8.85
2022-11-18T20:36:20.039Z,10.90
2022-11-18T20:38:51.472Z,7.88
2022-11-18T20:41:22.962Z,12.18
2022-11-18T20:43:51.847Z,9.50
2022-11-18T20:46:22.068Z,12.70
2022-11-18T20:48:51.454Z,9.43
2022-11-18T20:51:21.820Z,8.75
2022-11-18T20:53:51.276Z,9.10
2022-11-18T20:56:23.017Z,10.75
2022-11-18T20:58:52.288Z,12.77
2022-11-18T21:01:23.371Z,10.80
2022-11-18T21:03:54.910Z,12.55
2022-11-18T21:06:24.889Z,13.10
2022-11-18T21:08:56.881Z,13.20
2022-11-18T21:11:27.987Z,12.75
2022-11-18T21:14:18.406Z,10.07
2022-11-18T21:16:50.744Z,11.63
2022-11-18T21:19:19.722Z,9.43
2022-11-18T21:21:49.207Z,11.77
2022-11-18T21:24:18.925Z,10.10
2022-11-18T21:26:50.315Z,8.65
2022-11-18T21:29:19.829Z,8.27
2022-11-18T21:31:48.853Z,6.68
2022-11-18T21:34:18.408Z,7.37
2022-11-18T21:36:51.692Z,7.63
2022-11-18T21:39:23.469Z,6.65
2022-11-18T21:41:56.706Z,7.80
2022-11-18T21:44:28.397Z,6.75
2022-11-18T21:46:57.906Z,6.75
2022-11-18T21:49:26.957Z,8.95
2022-11-18T21:51:55.546Z,7.55
2022-11-18T21:54:24.353Z,7.32
2022-11-18T21:56:54.629Z,6.97
2022-11-18T21:59:23.839Z,7.28
2022-11-18T22:01:52.505Z,9.35
2022-11-18T22:04:38.573Z,8.00
2022-11-18T22:07:07.376Z,6.75
2022-11-18T22:09:37.105Z,7.35
2022-11-18T22:12:08.725Z,6.82
2022-11-18T22:14:37.585Z,5.97
2022-11-18T22:17:06.534Z,7.85
2022-11-18T22:19:35.548Z,7.72
2022-11-18T22:22:04.538Z,6.82
2022-11-18T22:24:33.296Z,8.63
2022-11-18T22:27:03.761Z,6.45
2022-11-18T22:29:35.940Z,6.70
2022-11-18T22:32:04.740Z,6.38
2022-11-18T22:34:33.793Z,6.67
2022-11-18T22:37:02.401Z,6.20
2022-11-18T22:39:32.239Z,5.93
2022-11-18T22:44:47.947Z,5.68
2022-11-18T22:47:16.660Z,5.97
2022-11-18T22:49:45.476Z,5.78
2022-11-18T22:52:14.225Z,5.90
2022-11-18T22:54:42.890Z,5.88
2022-11-18T22:57:11.648Z,4.45
2022-11-18T22:59:40.244Z,5.70
2022-11-18T23:02:10.357Z,6.47
2022-11-18T23:04:39.150Z,5.65
2022-11-18T23:07:08.363Z,6.15
2022-11-18T23:09:37.192Z,6.63
2022-11-18T23:12:23.689Z,5.35
2022-11-18T23:14:52.330Z,6.30
2022-11-18T23:17:22.410Z,5.75
2022-11-18T23:19:51.142Z,7.75
2022-11-18T23:22:20.424Z,6.65
2022-11-18T23:24:49.296Z,5.45
2022-11-18T23:27:18.011Z,5.15
2022-11-18T23:29:46.738Z,5.53
2022-11-18T23:32:15.302Z,4.72
2022-11-18T23:34:45.457Z,6.28
2022-11-18T23:37:14.083Z,6.25
2022-11-18T23:39:42.630Z,8.75
2022-11-18T23:42:11.295Z,5.45
2022-11-18T23:44:52.793Z,6.47
2022-11-18T23:47:21.480Z,4.82
2022-11-18T23:49:51.620Z,5.78
2022-11-18T23:52:20.262Z,5.72
2022-11-18T23:54:51.920Z,4.65
2022-11-18T23:57:20.548Z,6.30
2022-11-18T23:59:49.221Z,5.72
